sensor_id;sensor_type;location;lat;lon;timestamp;pressure;altitude;pressure_sealevel;temperature;humidity
78623;BME280;67943;54.412;9.502;2023-05-21T00:01:16;102170.38;;;13.29;57.78
78623;BME280;67943;54.412;9.502;2023-05-21T00:06:19;102167.84;;;13.21;58.42
78623;BME280;67943;54.412;9.502;2023-05-21T00:11:22;102152.91;;;13.17;58.54
78623;BME280;67943;54.412;9.502;2023-05-21T00:16:24;102159.09;;;13.13;58.72
78623;BME280;67943;54.412;9.502;2023-05-21T00:21:27;102155.63;;;13.05;58.57
78623;BME280;67943;54.412;9.502;2023-05-21T00:26:28;102151.22;;;13.05;58.31
78623;BME280;67943;54.412;9.502;2023-05-21T00:31:30;102145.09;;;13.02;58.25
78623;BME280;67943;54.412;9.502;2023-05-21T00:36:34;102140.75;;;12.99;58.00
78623;BME280;67943;54.412;9.502;2023-05-21T00:41:35;102131.91;;;13.00;58.13
78623;BME280;67943;54.412;9.502;2023-05-21T00:46:39;102122.25;;;12.98;57.98
78623;BME280;67943;54.412;9.502;2023-05-21T00:51:42;102119.66;;;12.93;58.32
78623;BME280;67943;54.412;9.502;2023-05-21T00:56:45;102124.13;;;12.87;58.58
78623;BME280;67943;54.412;9.502;2023-05-21T01:01:47;102116.25;;;12.80;58.73
78623;BME280;67943;54.412;9.502;2023-05-21T01:06:54;102109.25;;;12.78;58.88
78623;BME280;67943;54.412;9.502;2023-05-21T01:11:58;102107.53;;;12.72;58.96
78623;BME280;67943;54.412;9.502;2023-05-21T01:17:00;102097.94;;;12.65;59.07
78623;BME280;67943;54.412;9.502;2023-05-21T01:22:05;102096.16;;;12.67;59.18
78623;BME280;67943;54.412;9.502;2023-05-21T01:27:08;102093.50;;;12.70;58.81
78623;BME280;67943;54.412;9.502;2023-05-21T01:32:15;102087.41;;;12.62;59.04
78623;BME280;67943;54.412;9.502;2023-05-21T01:37:22;102083.88;;;12.60;59.06
78623;BME280;67943;54.412;9.502;2023-05-21T01:42:28;102084.81;;;12.55;59.39
78623;BME280;67943;54.412;9.502;2023-05-21T01:47:31;102079.56;;;12.51;59.56
78623;BME280;67943;54.412;9.502;2023-05-21T01:52:33;102084.84;;;12.51;59.68
78623;BME280;67943;54.412;9.502;2023-05-21T01:57:36;102086.59;;;12.54;59.87
78623;BME280;67943;54.412;9.502;2023-05-21T02:02:37;102067.25;;;12.52;60.22
78623;BME280;67943;54.412;9.502;2023-05-21T02:07:39;102062.78;;;12.57;60.41
78623;BME280;67943;54.412;9.502;2023-05-21T02:12:42;102069.00;;;12.53;60.89
78623;BME280;67943;54.412;9.502;2023-05-21T02:17:44;102065.41;;;12.59;61.27
78623;BME280;67943;54.412;9.502;2023-05-21T02:22:46;102062.84;;;12.51;61.63
78623;BME280;67943;54.412;9.502;2023-05-21T02:27:50;102059.31;;;12.52;61.83
78623;BME280;67943;54.412;9.502;2023-05-21T02:32:53;102051.44;;;12.47;62.28
78623;BME280;67943;54.412;9.502;2023-05-21T02:37:57;102047.94;;;12.44;62.74
78623;BME280;67943;54.412;9.502;2023-05-21T02:43:03;102043.53;;;12.44;62.97
78623;BME280;67943;54.412;9.502;2023-05-21T02:48:05;102044.41;;;12.45;63.23
78623;BME280;67943;54.412;9.502;2023-05-21T02:53:06;102053.19;;;12.47;63.32
78623;BME280;67943;54.412;9.502;2023-05-21T02:58:09;102045.28;;;12.47;63.69
78623;BME280;67943;54.412;9.502;2023-05-21T03:03:12;102044.38;;;12.49;63.78
78623;BME280;67943;54.412;9.502;2023-05-21T03:08:14;102037.25;;;12.58;63.75
78623;BME280;67943;54.412;9.502;2023-05-21T03:13:17;102044.31;;;12.56;64.21
78623;BME280;67943;54.412;9.502;2023-05-21T03:18:19;102028.47;;;12.56;64.61
78623;BME280;67943;54.412;9.502;2023-05-21T03:23:20;102026.72;;;12.56;64.81
78623;BME280;67943;54.412;9.502;2023-05-21T03:28:23;102024.09;;;12.55;65.06
78623;BME280;67943;54.412;9.502;2023-05-21T03:33:25;102028.53;;;12.51;65.39
78623;BME280;67943;54.412;9.502;2023-05-21T03:38:26;102023.22;;;12.54;65.62
78623;BME280;67943;54.412;9.502;2023-05-21T03:43:29;102015.28;;;12.57;65.75
78623;BME280;67943;54.412;9.502;2023-05-21T03:48:30;102028.47;;;12.59;66.01
78623;BME280;67943;54.412;9.502;2023-05-21T03:53:32;102019.63;;;12.63;66.09
78623;BME280;67943;54.412;9.502;2023-05-21T03:58:35;102017.84;;;12.63;66.44
78623;BME280;67943;54.412;9.502;2023-05-21T04:03:37;102017.72;;;12.72;66.49
78623;BME280;67943;54.412;9.502;2023-05-21T04:08:39;102015.16;;;12.69;66.68
78623;BME280;67943;54.412;9.502;2023-05-21T04:13:41;102009.81;;;12.72;66.83
78623;BME280;67943;54.412;9.502;2023-05-21T04:18:43;102011.50;;;12.78;67.04
78623;BME280;67943;54.412;9.502;2023-05-21T04:23:44;102014.94;;;12.88;67.11
78623;BME280;67943;54.412;9.502;2023-05-21T04:28:47;102012.31;;;12.84;67.44
78623;BME280;67943;54.412;9.502;2023-05-21T04:33:49;102014.88;;;12.92;67.44
78623;BME280;67943;54.412;9.502;2023-05-21T04:38:51;102011.28;;;12.98;67.48
78623;BME280;67943;54.412;9.502;2023-05-21T04:43:53;102018.22;;;13.05;67.59
78623;BME280;67943;54.412;9.502;2023-05-21T04:48:55;102013.72;;;13.13;67.60
78623;BME280;67943;54.412;9.502;2023-05-21T04:54:02;102010.13;;;13.23;67.43
78623;BME280;67943;54.412;9.502;2023-05-21T04:59:05;102002.09;;;13.29;67.47
78623;BME280;67943;54.412;9.502;2023-05-21T05:04:06;101999.25;;;13.44;67.47
78623;BME280;67943;54.412;9.502;2023-05-21T05:09:07;102005.41;;;13.45;67.57
78623;BME280;67943;54.412;9.502;2023-05-21T05:14:10;102009.75;;;13.50;67.66
78623;BME280;67943;54.412;9.502;2023-05-21T05:19:12;102021.13;;;13.56;67.92
78623;BME280;67943;54.412;9.502;2023-05-21T05:24:13;102006.72;;;13.75;67.61
78623;BME280;67943;54.412;9.502;2023-05-21T05:29:16;102002.13;;;13.86;67.63
78623;BME280;67943;54.412;9.502;2023-05-21T05:34:18;102003.84;;;13.89;67.69
78623;BME280;67943;54.412;9.502;2023-05-21T05:39:19;102004.44;;;14.07;67.50
78623;BME280;67943;54.412;9.502;2023-05-21T05:44:22;102004.19;;;14.19;67.72
78623;BME280;67943;54.412;9.502;2023-05-21T05:49:24;102011.91;;;14.33;67.14
78623;BME280;67943;54.412;9.502;2023-05-21T05:54:25;102001.88;;;14.52;67.40
78623;BME280;67943;54.412;9.502;2023-05-21T05:59:28;101987.25;;;14.77;66.62
78623;BME280;67943;54.412;9.502;2023-05-21T06:04:30;101986.72;;;15.03;65.75
78623;BME280;67943;54.412;9.502;2023-05-21T06:09:31;101983.47;;;15.31;65.43
78623;BME280;67943;54.412;9.502;2023-05-21T06:14:34;101983.56;;;15.66;64.39
78623;BME280;67943;54.412;9.502;2023-05-21T06:19:35;101978.56;;;15.90;63.63
78623;BME280;67943;54.412;9.502;2023-05-21T06:24:37;101984.69;;;16.27;62.43
78623;BME280;67943;54.412;9.502;2023-05-21T06:29:40;101989.28;;;16.20;62.93
78623;BME280;67943;54.412;9.502;2023-05-21T06:34:41;101989.97;;;16.61;62.09
78623;BME280;67943;54.412;9.502;2023-05-21T06:39:43;101990.88;;;16.60;62.36
78623;BME280;67943;54.412;9.502;2023-05-21T06:44:45;102002.03;;;16.74;61.41
78623;BME280;67943;54.412;9.502;2023-05-21T06:49:47;102002.69;;;16.82;61.34
78623;BME280;67943;54.412;9.502;2023-05-21T06:54:48;102005.00;;;16.95;60.63
78623;BME280;67943;54.412;9.502;2023-05-21T06:59:51;102002.06;;;17.04;60.64
78623;BME280;67943;54.412;9.502;2023-05-21T07:04:53;102004.50;;;17.11;60.96
78623;BME280;67943;54.412;9.502;2023-05-21T07:09:54;102009.84;;;17.10;61.01
78623;BME280;67943;54.412;9.502;2023-05-21T07:14:58;102004.28;;;17.19;60.93
78623;BME280;67943;54.412;9.502;2023-05-21T07:20:00;102005.44;;;17.09;61.58
78623;BME280;67943;54.412;9.502;2023-05-21T07:25:02;102006.09;;;17.17;61.13
78623;BME280;67943;54.412;9.502;2023-05-21T07:30:08;102006.84;;;17.22;61.38
78623;BME280;67943;54.412;9.502;2023-05-21T07:35:09;101999.66;;;17.26;61.32
78623;BME280;67943;54.412;9.502;2023-05-21T07:40:12;101998.69;;;17.28;61.14
78623;BME280;67943;54.412;9.502;2023-05-21T07:45:15;101996.72;;;17.33;61.42
78623;BME280;67943;54.412;9.502;2023-05-21T07:50:16;101995.25;;;17.82;60.31
78623;BME280;67943;54.412;9.502;2023-05-21T07:55:18;101991.69;;;17.81;59.75
78623;BME280;67943;54.412;9.502;2023-05-21T08:00:22;101992.03;;;17.71;60.25
78623;BME280;67943;54.412;9.502;2023-05-21T08:05:24;101982.47;;;17.92;60.37
78623;BME280;67943;54.412;9.502;2023-05-21T08:10:25;101988.28;;;18.04;59.93
78623;BME280;67943;54.412;9.502;2023-05-21T08:15:28;101981.00;;;18.09;60.11
78623;BME280;67943;54.412;9.502;2023-05-21T08:20:30;101983.94;;;18.27;59.21
78623;BME280;67943;54.412;9.502;2023-05-21T08:25:32;101986.19;;;18.39;59.08
78623;BME280;67943;54.412;9.502;2023-05-21T08:30:35;101982.00;;;18.32;59.42
78623;BME280;67943;54.412;9.502;2023-05-21T08:35:36;102000.50;;;18.10;60.57
78623;BME280;67943;54.412;9.502;2023-05-21T08:40:38;101999.22;;;18.21;60.14
78623;BME280;67943;54.412;9.502;2023-05-21T08:45:44;101993.38;;;18.37;60.23
78623;BME280;67943;54.412;9.502;2023-05-21T08:50:49;101978.91;;;18.44;60.06
78623;BME280;67943;54.412;9.502;2023-05-21T08:55:52;101976.66;;;18.81;58.86
78623;BME280;67943;54.412;9.502;2023-05-21T09:00:56;101977.59;;;18.80;58.86
78623;BME280;67943;54.412;9.502;2023-05-21T09:05:58;101974.88;;;19.05;58.79
78623;BME280;67943;54.412;9.502;2023-05-21T09:11:00;101972.25;;;19.27;58.67
78623;BME280;67943;54.412;9.502;2023-05-21T09:16:04;101969.44;;;19.53;57.42
78623;BME280;67943;54.412;9.502;2023-05-21T09:21:22;101978.00;;;19.83;57.48
78623;BME280;67943;54.412;9.502;2023-05-21T09:26:24;101971.38;;;20.14;56.09
78623;BME280;67943;54.412;9.502;2023-05-21T09:31:28;101968.75;;;20.33;54.90
78623;BME280;67943;54.412;9.502;2023-05-21T09:36:29;101961.63;;;20.53;55.10
78623;BME280;67943;54.412;9.502;2023-05-21T09:41:33;101962.88;;;20.65;54.48
78623;BME280;67943;54.412;9.502;2023-05-21T09:46:40;101953.00;;;20.86;54.21
78623;BME280;67943;54.412;9.502;2023-05-21T09:51:42;101962.03;;;20.83;54.20
78623;BME280;67943;54.412;9.502;2023-05-21T09:56:44;101960.16;;;20.85;54.15
78623;BME280;67943;54.412;9.502;2023-05-21T10:01:49;101955.47;;;20.90;53.91
78623;BME280;67943;54.412;9.502;2023-05-21T10:06:51;101953.38;;;20.78;54.48
78623;BME280;67943;54.412;9.502;2023-05-21T10:11:53;101940.00;;;21.16;53.25
78623;BME280;67943;54.412;9.502;2023-05-21T10:16:56;101944.16;;;21.23;53.76
78623;BME280;67943;54.412;9.502;2023-05-21T10:21:59;101935.94;;;21.45;52.97
78623;BME280;67943;54.412;9.502;2023-05-21T10:27:01;101932.25;;;21.47;52.83
78623;BME280;67943;54.412;9.502;2023-05-21T10:32:05;101929.13;;;21.56;52.26
78623;BME280;67943;54.412;9.502;2023-05-21T10:37:07;101935.13;;;21.96;51.85
78623;BME280;67943;54.412;9.502;2023-05-21T10:42:20;101933.94;;;22.03;51.92
78623;BME280;67943;54.412;9.502;2023-05-21T10:47:55;101928.72;;;22.68;49.87
78623;BME280;67943;54.412;9.502;2023-05-21T10:58:38;101924.47;;;23.28;48.43
78623;BME280;67943;54.412;9.502;2023-05-21T11:03:47;101920.78;;;24.06;47.31
78623;BME280;67943;54.412;9.502;2023-05-21T11:08:49;101915.66;;;24.32;46.83
78623;BME280;67943;54.412;9.502;2023-05-21T11:13:52;101909.81;;;24.39;46.30
78623;BME280;67943;54.412;9.502;2023-05-21T11:19:01;101909.88;;;24.23;45.92
78623;BME280;67943;54.412;9.502;2023-05-21T11:24:06;101890.81;;;24.12;46.49
78623;BME280;67943;54.412;9.502;2023-05-21T11:29:10;101899.38;;;24.19;46.05
78623;BME280;67943;54.412;9.502;2023-05-21T11:34:13;101910.19;;;23.89;46.96
78623;BME280;67943;54.412;9.502;2023-05-21T11:39:16;101897.63;;;23.74;47.00
78623;BME280;67943;54.412;9.502;2023-05-21T11:44:36;101903.97;;;23.73;46.83
78623;BME280;67943;54.412;9.502;2023-05-21T11:49:41;101910.59;;;23.67;46.78
78623;BME280;67943;54.412;9.502;2023-05-21T11:54:44;101898.63;;;23.57;47.05
78623;BME280;67943;54.412;9.502;2023-05-21T11:59:48;101900.38;;;23.58;46.89
78623;BME280;67943;54.412;9.502;2023-05-21T12:04:51;101888.50;;;24.06;46.46
78623;BME280;67943;54.412;9.502;2023-05-21T12:09:53;101890.31;;;24.06;46.69
78623;BME280;67943;54.412;9.502;2023-05-21T12:14:54;101876.84;;;24.36;45.89
78623;BME280;67943;54.412;9.502;2023-05-21T12:19:57;101885.47;;;24.27;45.68
78623;BME280;67943;54.412;9.502;2023-05-21T12:25:03;101888.66;;;24.62;45.48
78623;BME280;67943;54.412;9.502;2023-05-21T12:30:05;101882.59;;;24.58;45.58
78623;BME280;67943;54.412;9.502;2023-05-21T12:35:19;101884.91;;;24.64;44.78
78623;BME280;67943;54.412;9.502;2023-05-21T12:40:20;101878.28;;;24.55;44.73
78623;BME280;67943;54.412;9.502;2023-05-21T12:45:22;101885.00;;;24.34;44.76
78623;BME280;67943;54.412;9.502;2023-05-21T12:50:25;101880.25;;;24.09;45.44
78623;BME280;67943;54.412;9.502;2023-05-21T12:55:27;101872.97;;;24.11;45.41
78623;BME280;67943;54.412;9.502;2023-05-21T13:00:30;101867.16;;;23.89;46.64
78623;BME280;67943;54.412;9.502;2023-05-21T13:05:33;101877.16;;;24.01;47.05
78623;BME280;67943;54.412;9.502;2023-05-21T13:10:34;101869.03;;;23.73;47.27
78623;BME280;67943;54.412;9.502;2023-05-21T13:15:36;101875.81;;;23.48;48.13
78623;BME280;67943;54.412;9.502;2023-05-21T13:20:39;101869.53;;;23.34;48.07
78623;BME280;67943;54.412;9.502;2023-05-21T13:25:40;101861.25;;;23.07;48.55
78623;BME280;67943;54.412;9.502;2023-05-21T13:30:42;101863.50;;;22.99;49.16
78623;BME280;67943;54.412;9.502;2023-05-21T13:35:45;101853.13;;;23.08;48.34
78623;BME280;67943;54.412;9.502;2023-05-21T13:40:50;101844.88;;;22.96;48.44
78623;BME280;67943;54.412;9.502;2023-05-21T13:45:51;101860.75;;;22.67;49.36
78623;BME280;67943;54.412;9.502;2023-05-21T13:50:54;101848.47;;;22.47;49.99
78623;BME280;67943;54.412;9.502;2023-05-21T13:55:56;101851.38;;;22.43;50.75
78623;BME280;67943;54.412;9.502;2023-05-21T14:00:57;101844.91;;;22.47;50.33
78623;BME280;67943;54.412;9.502;2023-05-21T14:06:00;101851.66;;;22.54;50.14
78623;BME280;67943;54.412;9.502;2023-05-21T14:11:01;101850.28;;;22.47;50.14
78623;BME280;67943;54.412;9.502;2023-05-21T14:16:03;101856.16;;;22.53;50.28
78623;BME280;67943;54.412;9.502;2023-05-21T14:21:07;101847.69;;;22.45;50.47
78623;BME280;67943;54.412;9.502;2023-05-21T14:26:08;101855.47;;;22.50;49.93
78623;BME280;67943;54.412;9.502;2023-05-21T14:31:10;101855.41;;;22.18;50.54
78623;BME280;67943;54.412;9.502;2023-05-21T14:36:13;101851.16;;;22.14;50.99
78623;BME280;67943;54.412;9.502;2023-05-21T14:41:15;101844.25;;;22.26;50.56
78623;BME280;67943;54.412;9.502;2023-05-21T14:46:16;101849.16;;;22.18;50.75
78623;BME280;67943;54.412;9.502;2023-05-21T14:51:20;101849.97;;;22.03;51.75
78623;BME280;67943;54.412;9.502;2023-05-21T14:56:21;101851.97;;;21.98;51.93
78623;BME280;67943;54.412;9.502;2023-05-21T15:01:25;101854.69;;;22.15;51.55
78623;BME280;67943;54.412;9.502;2023-05-21T15:06:28;101843.09;;;22.14;51.91
78623;BME280;67943;54.412;9.502;2023-05-21T15:11:29;101846.34;;;22.04;51.99
78623;BME280;67943;54.412;9.502;2023-05-21T15:16:32;101835.69;;;22.19;52.23
78623;BME280;67943;54.412;9.502;2023-05-21T15:21:35;101825.75;;;22.04;53.17
78623;BME280;67943;54.412;9.502;2023-05-21T15:26:37;101830.84;;;22.26;52.50
78623;BME280;67943;54.412;9.502;2023-05-21T15:31:39;101820.78;;;22.47;52.12
78623;BME280;67943;54.412;9.502;2023-05-21T15:36:42;101825.53;;;22.57;52.14
78623;BME280;67943;54.412;9.502;2023-05-21T15:41:43;101819.91;;;22.62;52.19
78623;BME280;67943;54.412;9.502;2023-05-21T15:46:45;101812.56;;;22.66;52.26
78623;BME280;67943;54.412;9.502;2023-05-21T15:51:50;101816.19;;;22.49;52.23
78623;BME280;67943;54.412;9.502;2023-05-21T15:56:51;101810.41;;;22.72;51.90
78623;BME280;67943;54.412;9.502;2023-05-21T16:01:54;101811.53;;;22.68;51.48
78623;BME280;67943;54.412;9.502;2023-05-21T16:06:57;101805.38;;;22.50;52.19
78623;BME280;67943;54.412;9.502;2023-05-21T16:11:59;101806.59;;;22.45;52.13
78623;BME280;67943;54.412;9.502;2023-05-21T16:17:00;101791.78;;;22.38;52.29
78623;BME280;67943;54.412;9.502;2023-05-21T16:22:03;101802.78;;;22.49;51.80
78623;BME280;67943;54.412;9.502;2023-05-21T16:27:05;101793.75;;;22.34;52.30
78623;BME280;67943;54.412;9.502;2023-05-21T16:32:06;101798.50;;;22.29;52.92
78623;BME280;67943;54.412;9.502;2023-05-21T16:37:10;101788.47;;;22.33;52.15
78623;BME280;67943;54.412;9.502;2023-05-21T16:42:11;101795.03;;;22.27;52.13
78623;BME280;67943;54.412;9.502;2023-05-21T16:47:13;101789.66;;;22.11;52.63
78623;BME280;67943;54.412;9.502;2023-05-21T16:52:15;101790.28;;;22.16;52.10
78623;BME280;67943;54.412;9.502;2023-05-21T16:57:17;101785.63;;;22.03;52.17
78623;BME280;67943;54.412;9.502;2023-05-21T17:02:18;101786.88;;;21.96;52.62
78623;BME280;67943;54.412;9.502;2023-05-21T17:07:21;101783.69;;;21.89;52.55
78623;BME280;67943;54.412;9.502;2023-05-21T17:12:23;101786.84;;;21.80;52.91
78623;BME280;67943;54.412;9.502;2023-05-21T17:17:25;101779.03;;;21.75;53.01
78623;BME280;67943;54.412;9.502;2023-05-21T17:22:28;101782.69;;;21.57;54.07
78623;BME280;67943;54.412;9.502;2023-05-21T17:27:29;101783.41;;;21.43;54.51
78623;BME280;67943;54.412;9.502;2023-05-21T17:32:31;101777.66;;;21.34;55.14
78623;BME280;67943;54.412;9.502;2023-05-21T17:37:34;101784.50;;;21.39;55.25
78623;BME280;67943;54.412;9.502;2023-05-21T17:42:35;101795.03;;;21.25;55.40
78623;BME280;67943;54.412;9.502;2023-05-21T17:47:37;101791.19;;;21.12;55.94
78623;BME280;67943;54.412;9.502;2023-05-21T17:52:40;101788.22;;;21.01;56.35
78623;BME280;67943;54.412;9.502;2023-05-21T17:57:41;101793.13;;;20.91;56.84
78623;BME280;67943;54.412;9.502;2023-05-21T18:02:43;101790.22;;;20.78;57.31
78623;BME280;67943;54.412;9.502;2023-05-21T18:07:45;101793.53;;;20.65;57.66
78623;BME280;67943;54.412;9.502;2023-05-21T18:12:47;101793.31;;;20.50;57.89
78623;BME280;67943;54.412;9.502;2023-05-21T18:17:48;101793.63;;;20.44;57.72
78623;BME280;67943;54.412;9.502;2023-05-21T18:22:51;101786.84;;;20.36;58.07
78623;BME280;67943;54.412;9.502;2023-05-21T18:27:53;101784.97;;;20.19;58.15
78623;BME280;67943;54.412;9.502;2023-05-21T18:32:55;101789.78;;;20.11;58.47
78623;BME280;67943;54.412;9.502;2023-05-21T18:37:57;101784.94;;;20.00;58.72
78623;BME280;67943;54.412;9.502;2023-05-21T18:42:59;101784.44;;;19.92;58.99
78623;BME280;67943;54.412;9.502;2023-05-21T18:48:03;101788.56;;;19.79;59.54
78623;BME280;67943;54.412;9.502;2023-05-21T18:53:05;101788.44;;;19.82;59.19
78623;BME280;67943;54.412;9.502;2023-05-21T18:58:07;101776.69;;;19.66;59.67
78623;BME280;67943;54.412;9.502;2023-05-21T19:03:08;101773.84;;;19.48;60.31
78623;BME280;67943;54.412;9.502;2023-05-21T19:08:11;101771.63;;;19.38;60.68
78623;BME280;67943;54.412;9.502;2023-05-21T19:13:13;101779.88;;;19.33;60.68
78623;BME280;67943;54.412;9.502;2023-05-21T19:18:14;101771.44;;;19.22;61.08
78623;BME280;67943;54.412;9.502;2023-05-21T19:23:18;101788.75;;;19.12;61.32
78623;BME280;67943;54.412;9.502;2023-05-21T19:28:20;101792.19;;;18.94;61.60
78623;BME280;67943;54.412;9.502;2023-05-21T19:33:21;101784.41;;;18.87;61.69
78623;BME280;67943;54.412;9.502;2023-05-21T19:38:24;101795.81;;;18.69;62.35
78623;BME280;67943;54.412;9.502;2023-05-21T19:43:25;101792.53;;;18.63;62.16
78623;BME280;67943;54.412;9.502;2023-05-21T19:48:27;101798.22;;;18.52;62.53
78623;BME280;67943;54.412;9.502;2023-05-21T19:53:29;101798.56;;;18.44;62.64
78623;BME280;67943;54.412;9.502;2023-05-21T19:58:31;101793.94;;;18.48;62.59
78623;BME280;67943;54.412;9.502;2023-05-21T20:03:32;101796.63;;;18.25;63.14
78623;BME280;67943;54.412;9.502;2023-05-21T20:08:37;101802.44;;;18.12;63.55
78623;BME280;67943;54.412;9.502;2023-05-21T20:13:39;101804.06;;;18.16;63.61
78623;BME280;67943;54.412;9.502;2023-05-21T20:18:40;101804.06;;;17.92;64.34
78623;BME280;67943;54.412;9.502;2023-05-21T20:23:47;101803.44;;;17.85;64.44
78623;BME280;67943;54.412;9.502;2023-05-21T20:28:49;101807.06;;;17.82;64.44
78623;BME280;67943;54.412;9.502;2023-05-21T20:33:50;101793.22;;;17.73;64.73
78623;BME280;67943;54.412;9.502;2023-05-21T20:38:54;101803.13;;;17.68;64.93
78623;BME280;67943;54.412;9.502;2023-05-21T20:43:56;101801.88;;;17.53;65.59
78623;BME280;67943;54.412;9.502;2023-05-21T20:48:58;101797.72;;;17.44;65.90
78623;BME280;67943;54.412;9.502;2023-05-21T20:54:01;101803.28;;;17.37;66.27
78623;BME280;67943;54.412;9.502;2023-05-21T20:59:02;101812.38;;;17.31;66.45
78623;BME280;67943;54.412;9.502;2023-05-21T21:04:04;101812.44;;;17.30;66.58
78623;BME280;67943;54.412;9.502;2023-05-21T21:09:07;101807.53;;;17.16;67.02
78623;BME280;67943;54.412;9.502;2023-05-21T21:14:09;101807.53;;;17.16;67.16
78623;BME280;67943;54.412;9.502;2023-05-21T21:19:10;101814.91;;;17.08;67.43
78623;BME280;67943;54.412;9.502;2023-05-21T21:24:13;101809.91;;;16.99;67.90
78623;BME280;67943;54.412;9.502;2023-05-21T21:29:14;101811.88;;;16.92;68.06
78623;BME280;67943;54.412;9.502;2023-05-21T21:34:16;101815.50;;;16.90;68.33
78623;BME280;67943;54.412;9.502;2023-05-21T21:39:19;101821.63;;;16.92;68.23
78623;BME280;67943;54.412;9.502;2023-05-21T21:44:20;101813.94;;;16.82;68.56
78623;BME280;67943;54.412;9.502;2023-05-21T21:49:21;101817.69;;;16.75;68.90
78623;BME280;67943;54.412;9.502;2023-05-21T21:54:24;101811.72;;;16.69;69.01
78623;BME280;67943;54.412;9.502;2023-05-21T21:59:26;101807.38;;;16.66;69.29
78623;BME280;67943;54.412;9.502;2023-05-21T22:04:28;101813.47;;;16.70;69.25
78623;BME280;67943;54.412;9.502;2023-05-21T22:09:31;101808.44;;;16.59;69.38
78623;BME280;67943;54.412;9.502;2023-05-21T22:14:32;101807.72;;;16.54;69.76
78623;BME280;67943;54.412;9.502;2023-05-21T22:19:34;101805.97;;;16.53;69.84
78623;BME280;67943;54.412;9.502;2023-05-21T22:24:37;101806.13;;;16.47;70.14
78623;BME280;67943;54.412;9.502;2023-05-21T22:29:38;101805.13;;;16.51;69.96
78623;BME280;67943;54.412;9.502;2023-05-21T22:34:40;101804.41;;;16.46;70.17
78623;BME280;67943;54.412;9.502;2023-05-21T22:39:43;101797.66;;;16.36;70.59
78623;BME280;67943;54.412;9.502;2023-05-21T22:44:45;101796.56;;;16.43;70.33
78623;BME280;67943;54.412;9.502;2023-05-21T22:49:46;101798.69;;;16.30;70.84
78623;BME280;67943;54.412;9.502;2023-05-21T22:54:50;101794.38;;;16.26;70.91
78623;BME280;67943;54.412;9.502;2023-05-21T22:59:51;101788.94;;;16.31;70.74
78623;BME280;67943;54.412;9.502;2023-05-21T23:04:53;101788.28;;;16.23;71.06
78623;BME280;67943;54.412;9.502;2023-05-21T23:09:56;101792.69;;;16.24;71.11
78623;BME280;67943;54.412;9.502;2023-05-21T23:14:57;101787.50;;;16.19;71.29
78623;BME280;67943;54.412;9.502;2023-05-21T23:19:58;101777.78;;;16.18;71.35
78623;BME280;67943;54.412;9.502;2023-05-21T23:25:01;101785.63;;;16.23;71.20
78623;BME280;67943;54.412;9.502;2023-05-21T23:30:04;101775.00;;;16.23;71.31
78623;BME280;67943;54.412;9.502;2023-05-21T23:35:06;101771.59;;;16.17;71.27
78623;BME280;67943;54.412;9.502;2023-05-21T23:40:11;101776.22;;;16.12;71.50
78623;BME280;67943;54.412;9.502;2023-05-21T23:45:12;101773.47;;;16.15;71.12
78623;BME280;67943;54.412;9.502;2023-05-21T23:50:14;101764.75;;;16.10;71.43
78623;BME280;67943;54.412;9.502;2023-05-21T23:55:17;101764.03;;;16.05;71.23
